Ash Grove, MO (65604)

3:57 AM CDT on August 29, 2014 (GMT -0500)
Charis Farms | Change Station
CLOSE
Current Station
Personal Weather Station
Location: Ash Grove, MO
Elevation: 1024 ft
Nearby Weather Stations

Elev 1024 ft 37.34 °N, 93.60 °W | Updated 41 seconds ago

Clear
Clear
66.7 °F
Feels Like 66.7 °F
N
0.0
Wind Variable Wind from SE
Gusts 1.0 mph

Today
High -- | Low -- °F
--% Chance of Precip.
Yesterday
High -- | Low -- °F
Precip. -- in
6:42 AM 7:47 PM
Waxing Crescent, 13% visible
Pressure 29.88 in
Visibility 10.0 miles
Clouds Clear
Dew Point 63 °F
Humidity 88%
Rainfall 0.00 in
Snow Depth Not available.
UV 0 out of 12
Pollen 11.00 out of 12
Air Quality Not available.
Flu Activity Not available.
METAR KSGF 290852Z AUTO 15009KT 10SM CLR 22/17 A2993 RMK AO2 SLP118 T02220167 56008

More Conditions Fewer Conditions

Pressure 29.88 in
Visibility 10.0 miles
Clouds Clear
Dew Point 63 °F
Humidity 88%
Rainfall 0.00 in
Snow Depth Not available.
UV 0 out of 12
Pollen 11.00 out of 12
Air Quality Not available.
Flu Activity Not available.
METAR KSGF 290852Z AUTO 15009KT 10SM CLR 22/17 A2993 RMK AO2 SLP118 T02220167 56008

More Conditions Fewer Conditions

10-Day Weather Forecast

Almanac

Astronomy

Aug. 29, 2014 Rise Set
Actual Time 6:42 AM CDT 7:47 PM CDT
Civil Twilight 6:15 AM CDT 8:14 PM CDT
Nautical Twilight 5:43 AM CDT 8:46 PM CDT
Astronomical Twilight 5:10 AM CDT 9:19 PM CDT
Moon 10:26 AM CDT 9:51 PM CDT
Length of Visible Light 13h 58m
Length of Day
13h 05m
Tomorrow will be 2m 16s shorter.
Waxing Crescent, 13% of the Moon is Illuminated
Today
Waxing Crescent
Sep 2
First Quarter
Sep 8
Full
Sep 15
Last Quarter
Sep 24
New

Today's Extremes

State Highs State Lows

Community

WunderPhotos

Upload Photos

1,748,197 photos uploaded!

Nearby

Air Quality

  Air Quality AQ Index Pollutant
Yesterday Good
PM10
Yesterday Good
OZONE
Friday Moderate
PM2.5
Friday Good
OZONE
Saturday Moderate
PM2.5
Saturday Good
OZONE
Sunday Good
OZONE
Sunday Good
PM2.5
Monday Good
OZONE
Monday Good
PM2.5

Snow Depth

Station Depth Elevation
No new snow has been reported.

Earthquake Activity

City Distance Mag. Time & Date
No recent earthquake activity has been reported nearby.
Minimum magnitude displayed is 2.5.

Coastal Water Temperatures

Place Temperature
No Stations Reporting

Nearby Weather Stations